sensor_id;sensor_type;location;lat;lon;timestamp;P1;durP1;ratioP1;P2;durP2;ratioP2
3085;SDS011;52812;48.960;9.108;2023-07-30T00:02:01;5.60;;;3.10;;
3085;SDS011;52812;48.960;9.108;2023-07-30T00:04:26;4.30;;;2.97;;
3085;SDS011;52812;48.960;9.108;2023-07-30T00:06:52;3.20;;;2.80;;
3085;SDS011;52812;48.960;9.108;2023-07-30T00:09:17;5.17;;;2.80;;
3085;SDS011;52812;48.960;9.108;2023-07-30T00:11:43;2.93;;;2.37;;
3085;SDS011;52812;48.960;9.108;2023-07-30T00:14:08;3.20;;;2.53;;
3085;SDS011;52812;48.960;9.108;2023-07-30T00:16:34;2.77;;;2.50;;
3085;SDS011;52812;48.960;9.108;2023-07-30T00:18:59;3.30;;;2.50;;
3085;SDS011;52812;48.960;9.108;2023-07-30T00:21:25;4.03;;;2.37;;
3085;SDS011;52812;48.960;9.108;2023-07-30T00:23:50;3.53;;;2.67;;
3085;SDS011;52812;48.960;9.108;2023-07-30T00:26:16;3.10;;;2.60;;
3085;SDS011;52812;48.960;9.108;2023-07-30T00:28:41;3.43;;;2.80;;
3085;SDS011;52812;48.960;9.108;2023-07-30T00:31:07;3.77;;;2.50;;
3085;SDS011;52812;48.960;9.108;2023-07-30T00:33:32;2.67;;;2.43;;
3085;SDS011;52812;48.960;9.108;2023-07-30T00:35:58;3.20;;;2.67;;
3085;SDS011;52812;48.960;9.108;2023-07-30T00:38:23;3.47;;;2.87;;
3085;SDS011;52812;48.960;9.108;2023-07-30T00:40:49;4.37;;;2.57;;
3085;SDS011;52812;48.960;9.108;2023-07-30T00:43:15;2.90;;;2.30;;
3085;SDS011;52812;48.960;9.108;2023-07-30T00:45:42;3.87;;;2.40;;
3085;SDS011;52812;48.960;9.108;2023-07-30T00:48:09;3.10;;;2.30;;
3085;SDS011;52812;48.960;9.108;2023-07-30T00:50:38;2.90;;;2.50;;
3085;SDS011;52812;48.960;9.108;2023-07-30T00:53:05;3.90;;;2.90;;
3085;SDS011;52812;48.960;9.108;2023-07-30T00:55:32;2.50;;;2.10;;
3085;SDS011;52812;48.960;9.108;2023-07-30T00:57:57;2.40;;;2.00;;
3085;SDS011;52812;48.960;9.108;2023-07-30T01:00:23;2.97;;;2.17;;
3085;SDS011;52812;48.960;9.108;2023-07-30T01:02:50;2.10;;;1.90;;
3085;SDS011;52812;48.960;9.108;2023-07-30T01:05:16;3.50;;;1.87;;
3085;SDS011;52812;48.960;9.108;2023-07-30T01:10:10;2.33;;;1.80;;
3085;SDS011;52812;48.960;9.108;2023-07-30T01:12:35;2.70;;;2.03;;
3085;SDS011;52812;48.960;9.108;2023-07-30T01:15:03;1.97;;;1.73;;
3085;SDS011;52812;48.960;9.108;2023-07-30T01:17:30;2.70;;;1.87;;
3085;SDS011;52812;48.960;9.108;2023-07-30T01:19:56;2.30;;;1.60;;
3085;SDS011;52812;48.960;9.108;2023-07-30T01:22:22;1.90;;;1.70;;
3085;SDS011;52812;48.960;9.108;2023-07-30T01:24:48;1.83;;;1.60;;
3085;SDS011;52812;48.960;9.108;2023-07-30T01:27:15;2.20;;;1.50;;
3085;SDS011;52812;48.960;9.108;2023-07-30T01:29:55;2.27;;;1.53;;
3085;SDS011;52812;48.960;9.108;2023-07-30T01:32:27;2.90;;;1.60;;
3085;SDS011;52812;48.960;9.108;2023-07-30T01:34:56;2.27;;;1.67;;
3085;SDS011;52812;48.960;9.108;2023-07-30T01:37:22;3.47;;;1.60;;
3085;SDS011;52812;48.960;9.108;2023-07-30T01:39:48;2.20;;;2.00;;
3085;SDS011;52812;48.960;9.108;2023-07-30T01:42:15;3.47;;;1.90;;
3085;SDS011;52812;48.960;9.108;2023-07-30T01:44:41;2.67;;;1.60;;
3085;SDS011;52812;48.960;9.108;2023-07-30T01:47:07;1.57;;;1.47;;
3085;SDS011;52812;48.960;9.108;2023-07-30T01:49:32;3.40;;;1.30;;
3085;SDS011;52812;48.960;9.108;2023-07-30T01:51:58;1.80;;;1.40;;
3085;SDS011;52812;48.960;9.108;2023-07-30T01:54:24;1.67;;;1.50;;
3085;SDS011;52812;48.960;9.108;2023-07-30T01:56:50;1.50;;;1.40;;
3085;SDS011;52812;48.960;9.108;2023-07-30T01:59:15;1.60;;;1.50;;
3085;SDS011;52812;48.960;9.108;2023-07-30T02:01:41;1.80;;;1.50;;
3085;SDS011;52812;48.960;9.108;2023-07-30T02:04:08;1.33;;;1.20;;
3085;SDS011;52812;48.960;9.108;2023-07-30T02:06:33;1.40;;;1.30;;
3085;SDS011;52812;48.960;9.108;2023-07-30T02:08:59;2.53;;;1.50;;
3085;SDS011;52812;48.960;9.108;2023-07-30T02:11:24;1.30;;;1.20;;
3085;SDS011;52812;48.960;9.108;2023-07-30T02:13:50;1.57;;;1.47;;
3085;SDS011;52812;48.960;9.108;2023-07-30T02:16:16;1.33;;;1.10;;
3085;SDS011;52812;48.960;9.108;2023-07-30T02:18:41;1.70;;;1.37;;
3085;SDS011;52812;48.960;9.108;2023-07-30T02:21:07;3.33;;;1.50;;
3085;SDS011;52812;48.960;9.108;2023-07-30T02:23:32;1.97;;;1.53;;
3085;SDS011;52812;48.960;9.108;2023-07-30T02:25:58;1.80;;;1.40;;
3085;SDS011;52812;48.960;9.108;2023-07-30T02:28:23;2.07;;;1.40;;
3085;SDS011;52812;48.960;9.108;2023-07-30T02:30:49;1.93;;;1.37;;
3085;SDS011;52812;48.960;9.108;2023-07-30T02:33:14;1.50;;;1.40;;
3085;SDS011;52812;48.960;9.108;2023-07-30T02:35:40;1.47;;;1.37;;
3085;SDS011;52812;48.960;9.108;2023-07-30T02:38:07;1.67;;;1.50;;
3085;SDS011;52812;48.960;9.108;2023-07-30T02:40:33;1.77;;;1.50;;
3085;SDS011;52812;48.960;9.108;2023-07-30T02:42:58;1.63;;;1.50;;
3085;SDS011;52812;48.960;9.108;2023-07-30T02:45:24;2.43;;;1.67;;
3085;SDS011;52812;48.960;9.108;2023-07-30T02:47:50;2.00;;;1.80;;
3085;SDS011;52812;48.960;9.108;2023-07-30T02:50:15;2.20;;;1.90;;
3085;SDS011;52812;48.960;9.108;2023-07-30T02:52:41;2.70;;;1.97;;
3085;SDS011;52812;48.960;9.108;2023-07-30T02:55:06;1.90;;;1.80;;
3085;SDS011;52812;48.960;9.108;2023-07-30T02:57:32;2.60;;;2.00;;
3085;SDS011;52812;48.960;9.108;2023-07-30T02:59:58;4.73;;;2.00;;
3085;SDS011;52812;48.960;9.108;2023-07-30T03:02:23;2.47;;;2.03;;
3085;SDS011;52812;48.960;9.108;2023-07-30T03:04:49;2.30;;;2.10;;
3085;SDS011;52812;48.960;9.108;2023-07-30T03:07:14;2.10;;;1.90;;
3085;SDS011;52812;48.960;9.108;2023-07-30T03:09:40;1.90;;;1.73;;
3085;SDS011;52812;48.960;9.108;2023-07-30T03:12:06;2.47;;;1.60;;
3085;SDS011;52812;48.960;9.108;2023-07-30T03:14:32;2.17;;;1.77;;
3085;SDS011;52812;48.960;9.108;2023-07-30T03:16:57;5.40;;;1.97;;
3085;SDS011;52812;48.960;9.108;2023-07-30T03:19:23;2.30;;;2.10;;
3085;SDS011;52812;48.960;9.108;2023-07-30T03:21:48;1.90;;;1.70;;
3085;SDS011;52812;48.960;9.108;2023-07-30T03:24:14;2.00;;;1.80;;
3085;SDS011;52812;48.960;9.108;2023-07-30T03:26:39;2.20;;;1.80;;
3085;SDS011;52812;48.960;9.108;2023-07-30T03:29:05;3.53;;;1.63;;
3085;SDS011;52812;48.960;9.108;2023-07-30T03:31:30;1.60;;;1.50;;
3085;SDS011;52812;48.960;9.108;2023-07-30T03:33:56;3.20;;;1.70;;
3085;SDS011;52812;48.960;9.108;2023-07-30T03:36:21;3.23;;;1.63;;
3085;SDS011;52812;48.960;9.108;2023-07-30T03:38:47;1.97;;;1.63;;
3085;SDS011;52812;48.960;9.108;2023-07-30T03:41:13;3.00;;;1.90;;
3085;SDS011;52812;48.960;9.108;2023-07-30T03:43:38;1.73;;;1.43;;
3085;SDS011;52812;48.960;9.108;2023-07-30T03:46:04;2.73;;;1.43;;
3085;SDS011;52812;48.960;9.108;2023-07-30T03:48:29;3.07;;;1.70;;
3085;SDS011;52812;48.960;9.108;2023-07-30T03:50:55;3.00;;;1.73;;
3085;SDS011;52812;48.960;9.108;2023-07-30T03:53:21;1.60;;;1.50;;
3085;SDS011;52812;48.960;9.108;2023-07-30T03:55:47;1.90;;;1.70;;
3085;SDS011;52812;48.960;9.108;2023-07-30T03:58:12;2.20;;;1.80;;
3085;SDS011;52812;48.960;9.108;2023-07-30T04:00:38;2.30;;;2.00;;
3085;SDS011;52812;48.960;9.108;2023-07-30T04:03:04;2.80;;;2.17;;
3085;SDS011;52812;48.960;9.108;2023-07-30T04:05:29;4.40;;;2.67;;
3085;SDS011;52812;48.960;9.108;2023-07-30T04:07:55;3.77;;;2.57;;
3085;SDS011;52812;48.960;9.108;2023-07-30T04:10:21;3.33;;;2.30;;
3085;SDS011;52812;48.960;9.108;2023-07-30T04:12:47;3.30;;;2.00;;
3085;SDS011;52812;48.960;9.108;2023-07-30T04:15:12;2.87;;;2.00;;
3085;SDS011;52812;48.960;9.108;2023-07-30T04:17:39;2.03;;;1.83;;
3085;SDS011;52812;48.960;9.108;2023-07-30T04:20:05;2.40;;;1.70;;
3085;SDS011;52812;48.960;9.108;2023-07-30T04:22:31;3.30;;;1.87;;
3085;SDS011;52812;48.960;9.108;2023-07-30T04:24:56;2.47;;;1.80;;
3085;SDS011;52812;48.960;9.108;2023-07-30T04:27:22;2.70;;;1.67;;
3085;SDS011;52812;48.960;9.108;2023-07-30T04:29:48;2.27;;;1.83;;
3085;SDS011;52812;48.960;9.108;2023-07-30T04:32:13;4.80;;;2.00;;
3085;SDS011;52812;48.960;9.108;2023-07-30T04:34:39;2.80;;;2.00;;
3085;SDS011;52812;48.960;9.108;2023-07-30T04:37:05;2.00;;;1.80;;
3085;SDS011;52812;48.960;9.108;2023-07-30T04:39:34;3.40;;;2.00;;
3085;SDS011;52812;48.960;9.108;2023-07-30T04:42:00;4.50;;;2.00;;
3085;SDS011;52812;48.960;9.108;2023-07-30T04:44:25;2.07;;;1.87;;
3085;SDS011;52812;48.960;9.108;2023-07-30T04:46:51;1.90;;;1.70;;
3085;SDS011;52812;48.960;9.108;2023-07-30T04:49:17;1.90;;;1.67;;
3085;SDS011;52812;48.960;9.108;2023-07-30T04:51:42;2.13;;;1.80;;
3085;SDS011;52812;48.960;9.108;2023-07-30T04:54:08;2.20;;;1.80;;
3085;SDS011;52812;48.960;9.108;2023-07-30T04:56:33;1.97;;;1.77;;
3085;SDS011;52812;48.960;9.108;2023-07-30T04:58:59;2.00;;;1.60;;
3085;SDS011;52812;48.960;9.108;2023-07-30T05:01:25;2.27;;;2.07;;
3085;SDS011;52812;48.960;9.108;2023-07-30T05:03:51;2.77;;;2.07;;
3085;SDS011;52812;48.960;9.108;2023-07-30T05:06:16;2.40;;;2.20;;
3085;SDS011;52812;48.960;9.108;2023-07-30T05:08:42;2.50;;;2.20;;
3085;SDS011;52812;48.960;9.108;2023-07-30T05:11:07;2.13;;;1.90;;
3085;SDS011;52812;48.960;9.108;2023-07-30T05:13:33;2.93;;;2.20;;
3085;SDS011;52812;48.960;9.108;2023-07-30T05:15:59;2.43;;;2.23;;
3085;SDS011;52812;48.960;9.108;2023-07-30T05:18:24;2.53;;;2.13;;
3085;SDS011;52812;48.960;9.108;2023-07-30T05:20:50;3.37;;;2.40;;
3085;SDS011;52812;48.960;9.108;2023-07-30T05:23:15;2.67;;;2.30;;
3085;SDS011;52812;48.960;9.108;2023-07-30T05:25:41;3.30;;;2.20;;
3085;SDS011;52812;48.960;9.108;2023-07-30T05:28:06;2.20;;;2.00;;
3085;SDS011;52812;48.960;9.108;2023-07-30T05:30:32;2.43;;;2.20;;
3085;SDS011;52812;48.960;9.108;2023-07-30T05:32:57;2.37;;;2.03;;
3085;SDS011;52812;48.960;9.108;2023-07-30T05:35:23;1.90;;;1.70;;
3085;SDS011;52812;48.960;9.108;2023-07-30T05:37:48;3.10;;;1.80;;
3085;SDS011;52812;48.960;9.108;2023-07-30T05:40:14;3.00;;;2.10;;
3085;SDS011;52812;48.960;9.108;2023-07-30T05:42:39;4.20;;;2.00;;
3085;SDS011;52812;48.960;9.108;2023-07-30T05:45:05;2.70;;;2.10;;
3085;SDS011;52812;48.960;9.108;2023-07-30T05:47:31;2.00;;;1.80;;
3085;SDS011;52812;48.960;9.108;2023-07-30T05:49:57;1.70;;;1.60;;
3085;SDS011;52812;48.960;9.108;2023-07-30T05:52:23;2.07;;;1.87;;
3085;SDS011;52812;48.960;9.108;2023-07-30T05:54:48;2.00;;;1.80;;
3085;SDS011;52812;48.960;9.108;2023-07-30T05:57:14;2.07;;;1.87;;
3085;SDS011;52812;48.960;9.108;2023-07-30T05:59:39;2.30;;;2.03;;
3085;SDS011;52812;48.960;9.108;2023-07-30T06:02:05;1.83;;;1.40;;
3085;SDS011;52812;48.960;9.108;2023-07-30T06:04:30;2.03;;;1.47;;
3085;SDS011;52812;48.960;9.108;2023-07-30T06:06:58;1.77;;;1.67;;
3085;SDS011;52812;48.960;9.108;2023-07-30T06:09:27;1.97;;;1.67;;
3085;SDS011;52812;48.960;9.108;2023-07-30T06:11:53;1.67;;;1.57;;
3085;SDS011;52812;48.960;9.108;2023-07-30T06:14:20;1.77;;;1.60;;
3085;SDS011;52812;48.960;9.108;2023-07-30T06:16:45;2.10;;;1.67;;
3085;SDS011;52812;48.960;9.108;2023-07-30T06:19:11;2.00;;;1.80;;
3085;SDS011;52812;48.960;9.108;2023-07-30T06:21:36;1.63;;;1.50;;
3085;SDS011;52812;48.960;9.108;2023-07-30T06:24:02;2.70;;;1.60;;
3085;SDS011;52812;48.960;9.108;2023-07-30T06:26:27;1.70;;;1.53;;
3085;SDS011;52812;48.960;9.108;2023-07-30T06:28:53;2.23;;;1.37;;
3085;SDS011;52812;48.960;9.108;2023-07-30T06:31:19;1.60;;;1.37;;
3085;SDS011;52812;48.960;9.108;2023-07-30T06:33:44;1.83;;;1.53;;
3085;SDS011;52812;48.960;9.108;2023-07-30T06:36:10;1.60;;;1.50;;
3085;SDS011;52812;48.960;9.108;2023-07-30T06:38:35;1.40;;;1.30;;
3085;SDS011;52812;48.960;9.108;2023-07-30T06:41:01;1.50;;;1.40;;
3085;SDS011;52812;48.960;9.108;2023-07-30T06:43:26;1.50;;;1.20;;
3085;SDS011;52812;48.960;9.108;2023-07-30T06:45:52;1.50;;;1.40;;
3085;SDS011;52812;48.960;9.108;2023-07-30T06:48:19;1.43;;;1.33;;
3085;SDS011;52812;48.960;9.108;2023-07-30T06:50:45;1.40;;;1.30;;
3085;SDS011;52812;48.960;9.108;2023-07-30T06:53:10;1.33;;;1.23;;
3085;SDS011;52812;48.960;9.108;2023-07-30T06:55:36;1.40;;;1.30;;
3085;SDS011;52812;48.960;9.108;2023-07-30T06:58:01;1.77;;;1.40;;
3085;SDS011;52812;48.960;9.108;2023-07-30T07:00:27;1.40;;;1.30;;
3085;SDS011;52812;48.960;9.108;2023-07-30T07:02:52;2.43;;;1.50;;
3085;SDS011;52812;48.960;9.108;2023-07-30T07:05:18;1.40;;;1.30;;
3085;SDS011;52812;48.960;9.108;2023-07-30T07:07:44;1.77;;;1.50;;
3085;SDS011;52812;48.960;9.108;2023-07-30T07:10:10;1.70;;;1.60;;
3085;SDS011;52812;48.960;9.108;2023-07-30T07:12:36;1.30;;;1.20;;
3085;SDS011;52812;48.960;9.108;2023-07-30T07:15:03;1.30;;;1.20;;
3085;SDS011;52812;48.960;9.108;2023-07-30T07:17:29;1.50;;;1.40;;
3085;SDS011;52812;48.960;9.108;2023-07-30T07:19:55;1.47;;;1.37;;
3085;SDS011;52812;48.960;9.108;2023-07-30T07:22:20;1.50;;;1.40;;
3085;SDS011;52812;48.960;9.108;2023-07-30T07:24:46;1.57;;;1.47;;
3085;SDS011;52812;48.960;9.108;2023-07-30T07:27:11;1.73;;;1.33;;
3085;SDS011;52812;48.960;9.108;2023-07-30T07:29:37;1.67;;;1.40;;
3085;SDS011;52812;48.960;9.108;2023-07-30T07:32:03;2.13;;;1.50;;
3085;SDS011;52812;48.960;9.108;2023-07-30T07:34:28;2.17;;;1.60;;
3085;SDS011;52812;48.960;9.108;2023-07-30T07:36:54;1.53;;;1.40;;
3085;SDS011;52812;48.960;9.108;2023-07-30T07:39:19;1.67;;;1.50;;
3085;SDS011;52812;48.960;9.108;2023-07-30T07:41:45;1.73;;;1.37;;
3085;SDS011;52812;48.960;9.108;2023-07-30T07:44:11;2.50;;;1.87;;
3085;SDS011;52812;48.960;9.108;2023-07-30T07:46:36;2.23;;;1.60;;
3085;SDS011;52812;48.960;9.108;2023-07-30T07:49:02;1.73;;;1.60;;
3085;SDS011;52812;48.960;9.108;2023-07-30T07:51:27;1.30;;;1.20;;
3085;SDS011;52812;48.960;9.108;2023-07-30T07:53:53;1.50;;;1.40;;
3085;SDS011;52812;48.960;9.108;2023-07-30T07:56:18;2.10;;;1.40;;
3085;SDS011;52812;48.960;9.108;2023-07-30T07:58:44;1.77;;;1.50;;
3085;SDS011;52812;48.960;9.108;2023-07-30T08:01:09;1.40;;;1.30;;
3085;SDS011;52812;48.960;9.108;2023-07-30T08:03:35;2.60;;;1.40;;
3085;SDS011;52812;48.960;9.108;2023-07-30T08:06:00;1.60;;;1.50;;
3085;SDS011;52812;48.960;9.108;2023-07-30T08:08:27;5.00;;;2.47;;
3085;SDS011;52812;48.960;9.108;2023-07-30T08:10:53;11.43;;;6.00;;
3085;SDS011;52812;48.960;9.108;2023-07-30T08:13:19;10.30;;;5.50;;
3085;SDS011;52812;48.960;9.108;2023-07-30T08:15:45;9.43;;;5.03;;
3085;SDS011;52812;48.960;9.108;2023-07-30T08:18:11;5.00;;;3.60;;
3085;SDS011;52812;48.960;9.108;2023-07-30T08:20:36;2.30;;;1.87;;
3085;SDS011;52812;48.960;9.108;2023-07-30T08:23:02;2.00;;;1.80;;
3085;SDS011;52812;48.960;9.108;2023-07-30T08:25:28;2.23;;;2.03;;
3085;SDS011;52812;48.960;9.108;2023-07-30T08:27:53;2.10;;;1.77;;
3085;SDS011;52812;48.960;9.108;2023-07-30T08:30:19;2.50;;;1.80;;
3085;SDS011;52812;48.960;9.108;2023-07-30T08:32:45;2.37;;;2.00;;
3085;SDS011;52812;48.960;9.108;2023-07-30T08:35:10;2.27;;;1.93;;
3085;SDS011;52812;48.960;9.108;2023-07-30T08:37:36;2.10;;;1.90;;
3085;SDS011;52812;48.960;9.108;2023-07-30T08:40:02;2.43;;;2.20;;
3085;SDS011;52812;48.960;9.108;2023-07-30T08:42:28;2.07;;;1.80;;
3085;SDS011;52812;48.960;9.108;2023-07-30T08:44:54;2.17;;;1.97;;
3085;SDS011;52812;48.960;9.108;2023-07-30T08:47:20;2.43;;;1.97;;
3085;SDS011;52812;48.960;9.108;2023-07-30T08:49:45;2.60;;;2.40;;
3085;SDS011;52812;48.960;9.108;2023-07-30T08:52:11;2.17;;;1.97;;
3085;SDS011;52812;48.960;9.108;2023-07-30T08:54:37;4.13;;;2.47;;
3085;SDS011;52812;48.960;9.108;2023-07-30T08:57:04;2.70;;;2.10;;
3085;SDS011;52812;48.960;9.108;2023-07-30T08:59:31;2.30;;;2.10;;
3085;SDS011;52812;48.960;9.108;2023-07-30T09:02:02;2.67;;;2.30;;
3085;SDS011;52812;48.960;9.108;2023-07-30T09:04:29;4.33;;;2.33;;
3085;SDS011;52812;48.960;9.108;2023-07-30T09:06:59;2.50;;;2.30;;
3085;SDS011;52812;48.960;9.108;2023-07-30T09:09:25;2.63;;;2.43;;
3085;SDS011;52812;48.960;9.108;2023-07-30T09:11:51;2.30;;;2.10;;
3085;SDS011;52812;48.960;9.108;2023-07-30T09:14:19;2.73;;;2.20;;
3085;SDS011;52812;48.960;9.108;2023-07-30T09:16:46;2.30;;;2.10;;
3085;SDS011;52812;48.960;9.108;2023-07-30T09:19:15;2.17;;;2.00;;
3085;SDS011;52812;48.960;9.108;2023-07-30T09:21:42;2.10;;;1.90;;
3085;SDS011;52812;48.960;9.108;2023-07-30T09:24:08;4.57;;;2.40;;
3085;SDS011;52812;48.960;9.108;2023-07-30T09:26:44;2.73;;;2.37;;
3085;SDS011;52812;48.960;9.108;2023-07-30T09:29:11;2.43;;;2.23;;
3085;SDS011;52812;48.960;9.108;2023-07-30T09:31:45;2.80;;;2.60;;
3085;SDS011;52812;48.960;9.108;2023-07-30T09:34:21;3.20;;;2.20;;
3085;SDS011;52812;48.960;9.108;2023-07-30T09:36:52;3.20;;;2.40;;
3085;SDS011;52812;48.960;9.108;2023-07-30T09:39:20;2.40;;;2.20;;
3085;SDS011;52812;48.960;9.108;2023-07-30T09:41:49;2.90;;;2.23;;
3085;SDS011;52812;48.960;9.108;2023-07-30T09:44:16;2.90;;;2.00;;
3085;SDS011;52812;48.960;9.108;2023-07-30T09:46:43;3.97;;;2.17;;
3085;SDS011;52812;48.960;9.108;2023-07-30T09:49:10;2.77;;;2.47;;
3085;SDS011;52812;48.960;9.108;2023-07-30T09:51:39;2.93;;;2.50;;
3085;SDS011;52812;48.960;9.108;2023-07-30T09:54:06;3.03;;;2.30;;
3085;SDS011;52812;48.960;9.108;2023-07-30T09:56:36;2.67;;;2.30;;
3085;SDS011;52812;48.960;9.108;2023-07-30T09:59:04;2.47;;;2.27;;
3085;SDS011;52812;48.960;9.108;2023-07-30T10:01:30;2.77;;;2.40;;
3085;SDS011;52812;48.960;9.108;2023-07-30T10:03:57;4.13;;;2.50;;
3085;SDS011;52812;48.960;9.108;2023-07-30T10:06:27;2.50;;;1.90;;
3085;SDS011;52812;48.960;9.108;2023-07-30T10:08:55;2.53;;;2.33;;
3085;SDS011;52812;48.960;9.108;2023-07-30T10:11:24;4.80;;;2.70;;
3085;SDS011;52812;48.960;9.108;2023-07-30T10:13:51;2.77;;;2.47;;
3085;SDS011;52812;48.960;9.108;2023-07-30T10:16:17;3.37;;;2.60;;
3085;SDS011;52812;48.960;9.108;2023-07-30T10:18:43;2.80;;;2.60;;
3085;SDS011;52812;48.960;9.108;2023-07-30T10:21:09;3.33;;;2.70;;
3085;SDS011;52812;48.960;9.108;2023-07-30T10:23:46;2.53;;;2.33;;
3085;SDS011;52812;48.960;9.108;2023-07-30T10:26:33;2.73;;;2.50;;
3085;SDS011;52812;48.960;9.108;2023-07-30T10:29:19;2.87;;;2.50;;
3085;SDS011;52812;48.960;9.108;2023-07-30T10:31:48;4.23;;;2.80;;
3085;SDS011;52812;48.960;9.108;2023-07-30T10:34:19;3.60;;;2.40;;
3085;SDS011;52812;48.960;9.108;2023-07-30T10:36:46;3.47;;;2.70;;
3085;SDS011;52812;48.960;9.108;2023-07-30T10:39:20;3.33;;;2.83;;
3085;SDS011;52812;48.960;9.108;2023-07-30T10:41:50;3.77;;;2.63;;
3085;SDS011;52812;48.960;9.108;2023-07-30T10:44:24;2.50;;;2.30;;
3085;SDS011;52812;48.960;9.108;2023-07-30T10:46:54;2.67;;;2.23;;
3085;SDS011;52812;48.960;9.108;2023-07-30T10:49:20;3.10;;;2.70;;
3085;SDS011;52812;48.960;9.108;2023-07-30T10:51:46;2.97;;;2.43;;
3085;SDS011;52812;48.960;9.108;2023-07-30T10:54:12;4.20;;;2.60;;
3085;SDS011;52812;48.960;9.108;2023-07-30T10:56:38;2.97;;;2.50;;
3085;SDS011;52812;48.960;9.108;2023-07-30T10:59:05;3.10;;;2.40;;
3085;SDS011;52812;48.960;9.108;2023-07-30T11:01:35;3.30;;;2.67;;
3085;SDS011;52812;48.960;9.108;2023-07-30T11:04:05;3.00;;;2.40;;
3085;SDS011;52812;48.960;9.108;2023-07-30T11:06:45;3.60;;;2.47;;
3085;SDS011;52812;48.960;9.108;2023-07-30T11:09:22;3.10;;;2.80;;
3085;SDS011;52812;48.960;9.108;2023-07-30T11:11:50;3.57;;;2.80;;
3085;SDS011;52812;48.960;9.108;2023-07-30T11:14:17;6.47;;;3.90;;
3085;SDS011;52812;48.960;9.108;2023-07-30T11:16:48;2.87;;;2.53;;
3085;SDS011;52812;48.960;9.108;2023-07-30T11:19:18;3.17;;;2.50;;
3085;SDS011;52812;48.960;9.108;2023-07-30T11:21:44;4.73;;;2.70;;
3085;SDS011;52812;48.960;9.108;2023-07-30T11:24:13;2.90;;;2.50;;
3085;SDS011;52812;48.960;9.108;2023-07-30T11:26:39;3.90;;;2.40;;
3085;SDS011;52812;48.960;9.108;2023-07-30T11:29:18;2.53;;;2.30;;
3085;SDS011;52812;48.960;9.108;2023-07-30T11:31:44;2.47;;;2.27;;
3085;SDS011;52812;48.960;9.108;2023-07-30T11:34:10;4.30;;;2.83;;
3085;SDS011;52812;48.960;9.108;2023-07-30T11:36:37;3.40;;;2.63;;
3085;SDS011;52812;48.960;9.108;2023-07-30T11:39:03;2.77;;;2.47;;
3085;SDS011;52812;48.960;9.108;2023-07-30T11:41:29;2.70;;;2.50;;
3085;SDS011;52812;48.960;9.108;2023-07-30T11:43:55;3.97;;;2.33;;
3085;SDS011;52812;48.960;9.108;2023-07-30T11:46:21;3.23;;;2.47;;
3085;SDS011;52812;48.960;9.108;2023-07-30T11:48:48;2.20;;;2.00;;
3085;SDS011;52812;48.960;9.108;2023-07-30T11:51:33;2.40;;;2.20;;
3085;SDS011;52812;48.960;9.108;2023-07-30T11:53:59;2.47;;;2.20;;
3085;SDS011;52812;48.960;9.108;2023-07-30T11:56:29;3.20;;;2.60;;
3085;SDS011;52812;48.960;9.108;2023-07-30T11:59:02;2.67;;;2.33;;
3085;SDS011;52812;48.960;9.108;2023-07-30T12:01:32;2.40;;;2.20;;
3085;SDS011;52812;48.960;9.108;2023-07-30T12:04:00;3.33;;;2.40;;
3085;SDS011;52812;48.960;9.108;2023-07-30T12:06:40;3.47;;;2.43;;
3085;SDS011;52812;48.960;9.108;2023-07-30T12:09:16;3.23;;;2.37;;
3085;SDS011;52812;48.960;9.108;2023-07-30T12:11:50;2.40;;;2.10;;
3085;SDS011;52812;48.960;9.108;2023-07-30T12:14:16;2.20;;;2.00;;
3085;SDS011;52812;48.960;9.108;2023-07-30T12:16:42;2.30;;;2.00;;
3085;SDS011;52812;48.960;9.108;2023-07-30T12:19:08;4.00;;;2.00;;
3085;SDS011;52812;48.960;9.108;2023-07-30T12:21:33;2.43;;;2.03;;
3085;SDS011;52812;48.960;9.108;2023-07-30T12:23:59;2.80;;;2.03;;
3085;SDS011;52812;48.960;9.108;2023-07-30T12:26:25;2.30;;;2.00;;
3085;SDS011;52812;48.960;9.108;2023-07-30T12:28:50;2.20;;;2.00;;
3085;SDS011;52812;48.960;9.108;2023-07-30T12:31:16;2.10;;;1.90;;
3085;SDS011;52812;48.960;9.108;2023-07-30T12:33:41;2.50;;;1.67;;
3085;SDS011;52812;48.960;9.108;2023-07-30T12:36:08;3.73;;;1.80;;
3085;SDS011;52812;48.960;9.108;2023-07-30T12:38:33;3.50;;;2.10;;
3085;SDS011;52812;48.960;9.108;2023-07-30T12:40:59;1.80;;;1.50;;
3085;SDS011;52812;48.960;9.108;2023-07-30T12:43:25;2.10;;;1.87;;
3085;SDS011;52812;48.960;9.108;2023-07-30T12:45:50;2.33;;;1.80;;
3085;SDS011;52812;48.960;9.108;2023-07-30T12:48:16;3.27;;;2.00;;
3085;SDS011;52812;48.960;9.108;2023-07-30T12:50:41;2.00;;;1.70;;
3085;SDS011;52812;48.960;9.108;2023-07-30T12:53:07;3.20;;;1.70;;
3085;SDS011;52812;48.960;9.108;2023-07-30T12:55:33;1.87;;;1.60;;
3085;SDS011;52812;48.960;9.108;2023-07-30T12:57:58;3.03;;;1.80;;
3085;SDS011;52812;48.960;9.108;2023-07-30T13:00:24;2.10;;;1.73;;
3085;SDS011;52812;48.960;9.108;2023-07-30T13:02:50;1.83;;;1.47;;
3085;SDS011;52812;48.960;9.108;2023-07-30T13:05:20;1.70;;;1.60;;
3085;SDS011;52812;48.960;9.108;2023-07-30T13:07:46;4.47;;;1.63;;
3085;SDS011;52812;48.960;9.108;2023-07-30T13:10:11;2.53;;;1.60;;
3085;SDS011;52812;48.960;9.108;2023-07-30T13:12:37;2.27;;;1.90;;
3085;SDS011;52812;48.960;9.108;2023-07-30T13:15:03;2.57;;;1.73;;
3085;SDS011;52812;48.960;9.108;2023-07-30T13:17:29;2.20;;;1.73;;
3085;SDS011;52812;48.960;9.108;2023-07-30T13:19:54;2.40;;;1.70;;
3085;SDS011;52812;48.960;9.108;2023-07-30T13:22:20;1.90;;;1.70;;
3085;SDS011;52812;48.960;9.108;2023-07-30T13:24:45;2.20;;;1.90;;
3085;SDS011;52812;48.960;9.108;2023-07-30T13:27:11;2.80;;;1.83;;
3085;SDS011;52812;48.960;9.108;2023-07-30T13:29:37;2.07;;;1.60;;
3085;SDS011;52812;48.960;9.108;2023-07-30T13:32:02;3.40;;;1.97;;
3085;SDS011;52812;48.960;9.108;2023-07-30T13:34:28;5.53;;;2.07;;
3085;SDS011;52812;48.960;9.108;2023-07-30T13:36:53;3.20;;;1.80;;
3085;SDS011;52812;48.960;9.108;2023-07-30T13:39:19;2.77;;;1.80;;
3085;SDS011;52812;48.960;9.108;2023-07-30T13:41:44;2.90;;;2.20;;
3085;SDS011;52812;48.960;9.108;2023-07-30T13:44:10;2.70;;;1.90;;
3085;SDS011;52812;48.960;9.108;2023-07-30T13:46:36;6.83;;;2.20;;
3085;SDS011;52812;48.960;9.108;2023-07-30T13:49:02;3.57;;;2.40;;
3085;SDS011;52812;48.960;9.108;2023-07-30T13:51:29;3.50;;;1.93;;
3085;SDS011;52812;48.960;9.108;2023-07-30T13:53:57;4.37;;;2.00;;
3085;SDS011;52812;48.960;9.108;2023-07-30T13:56:24;3.13;;;1.80;;
3085;SDS011;52812;48.960;9.108;2023-07-30T13:58:50;2.60;;;2.20;;
3085;SDS011;52812;48.960;9.108;2023-07-30T14:01:15;2.80;;;2.20;;
3085;SDS011;52812;48.960;9.108;2023-07-30T14:03:42;2.70;;;2.00;;
3085;SDS011;52812;48.960;9.108;2023-07-30T14:06:08;2.30;;;2.00;;
3085;SDS011;52812;48.960;9.108;2023-07-30T14:08:34;1.87;;;1.70;;
3085;SDS011;52812;48.960;9.108;2023-07-30T14:10:59;2.97;;;2.37;;
3085;SDS011;52812;48.960;9.108;2023-07-30T14:13:25;4.87;;;2.00;;
3085;SDS011;52812;48.960;9.108;2023-07-30T14:15:51;4.50;;;2.20;;
3085;SDS011;52812;48.960;9.108;2023-07-30T14:18:16;3.50;;;2.10;;
3085;SDS011;52812;48.960;9.108;2023-07-30T14:20:42;2.63;;;1.90;;
3085;SDS011;52812;48.960;9.108;2023-07-30T14:23:08;5.00;;;1.90;;
3085;SDS011;52812;48.960;9.108;2023-07-30T14:25:33;3.33;;;2.60;;
3085;SDS011;52812;48.960;9.108;2023-07-30T14:27:59;2.80;;;2.00;;
3085;SDS011;52812;48.960;9.108;2023-07-30T14:30:24;2.83;;;1.90;;
3085;SDS011;52812;48.960;9.108;2023-07-30T14:32:50;2.03;;;1.87;;
3085;SDS011;52812;48.960;9.108;2023-07-30T14:35:15;2.50;;;1.80;;
3085;SDS011;52812;48.960;9.108;2023-07-30T14:37:41;2.00;;;1.80;;
3085;SDS011;52812;48.960;9.108;2023-07-30T14:40:07;3.40;;;2.20;;
3085;SDS011;52812;48.960;9.108;2023-07-30T14:42:33;3.13;;;2.00;;
3085;SDS011;52812;48.960;9.108;2023-07-30T14:44:58;2.63;;;1.80;;
3085;SDS011;52812;48.960;9.108;2023-07-30T14:47:24;3.10;;;1.83;;
3085;SDS011;52812;48.960;9.108;2023-07-30T14:49:49;3.70;;;1.77;;
3085;SDS011;52812;48.960;9.108;2023-07-30T14:52:16;6.13;;;1.60;;
3085;SDS011;52812;48.960;9.108;2023-07-30T14:54:43;1.97;;;1.70;;
3085;SDS011;52812;48.960;9.108;2023-07-30T14:57:09;4.37;;;1.60;;
3085;SDS011;52812;48.960;9.108;2023-07-30T14:59:36;2.20;;;1.60;;